createdAt,value
2022-10-12T00:00:36.877Z,17.90
2022-10-12T00:03:02.811Z,17.90
2022-10-12T00:05:29.489Z,17.90
2022-10-12T00:07:55.428Z,17.90
2022-10-12T00:10:21.493Z,17.90
2022-10-12T00:12:47.429Z,17.90
2022-10-12T00:15:14.080Z,17.80
2022-10-12T00:17:40.366Z,17.80
2022-10-12T00:20:08.670Z,17.80
2022-10-12T00:22:34.615Z,17.80
2022-10-12T00:25:01.308Z,17.70
2022-10-12T00:27:27.288Z,17.80
2022-10-12T00:29:53.198Z,17.70
2022-10-12T00:32:19.124Z,17.10
2022-10-12T00:34:45.862Z,16.80
2022-10-12T00:37:11.784Z,17.10
2022-10-12T00:39:37.684Z,17.30
2022-10-12T00:42:03.606Z,17.40
2022-10-12T00:44:29.579Z,17.50
2022-10-12T00:46:55.478Z,17.60
2022-10-12T00:49:22.270Z,17.50
2022-10-12T00:51:48.199Z,17.40
2022-10-12T00:54:14.107Z,17.10
2022-10-12T00:56:40.868Z,16.90
2022-10-12T00:59:06.768Z,17.10
2022-10-12T01:01:33.153Z,17.30
2022-10-12T01:03:59.897Z,17.40
2022-10-12T01:06:25.795Z,17.30
2022-10-12T01:08:52.584Z,17.30
2022-10-12T01:11:18.507Z,17.40
2022-10-12T01:13:44.459Z,17.60
2022-10-12T01:16:11.315Z,17.50
2022-10-12T01:18:37.261Z,17.40
2022-10-12T01:21:03.160Z,17.00
2022-10-12T01:23:30.011Z,16.60
2022-10-12T01:25:55.963Z,16.70
2022-10-12T01:28:21.959Z,17.00
2022-10-12T01:30:47.900Z,17.30
2022-10-12T01:33:14.698Z,17.40
2022-10-12T01:35:40.626Z,17.50
2022-10-12T01:38:07.385Z,17.50
2022-10-12T01:40:33.313Z,17.50
2022-10-12T01:42:59.242Z,17.60
2022-10-12T01:45:25.197Z,17.50
2022-10-12T01:47:51.732Z,17.50
2022-10-12T01:50:17.656Z,17.50
2022-10-12T01:52:43.550Z,17.50
2022-10-12T01:55:10.404Z,17.60
2022-10-12T01:57:36.529Z,17.60
2022-10-12T02:00:02.832Z,17.60
2022-10-12T02:02:28.757Z,17.50
2022-10-12T02:04:54.994Z,17.50
2022-10-12T02:07:22.366Z,17.50
2022-10-12T02:09:48.587Z,17.50
2022-10-12T02:12:14.776Z,17.50
2022-10-12T02:14:41.501Z,17.50
2022-10-12T02:17:07.682Z,17.40
2022-10-12T02:19:33.607Z,17.40
2022-10-12T02:22:00.859Z,17.40
2022-10-12T02:27:08.555Z,17.40
2022-10-12T04:26:20.992Z,16.50
2022-10-12T04:31:31.936Z,16.40
2022-10-12T04:33:57.853Z,16.40
2022-10-12T04:36:23.836Z,16.50
2022-10-12T04:38:49.733Z,16.50
2022-10-12T04:41:15.660Z,16.50
2022-10-12T04:43:41.588Z,16.40
2022-10-12T04:46:07.511Z,16.20
2022-10-12T04:48:33.435Z,16.00
2022-10-12T04:50:59.334Z,16.00
2022-10-12T04:53:25.291Z,16.10
2022-10-12T04:55:51.911Z,16.10
2022-10-12T04:58:18.164Z,16.20
2022-10-12T05:00:44.114Z,16.20
2022-10-12T05:03:10.006Z,16.10
2022-10-12T05:05:35.970Z,16.20
2022-10-12T05:08:02.673Z,16.10
2022-10-12T05:10:28.601Z,16.10
2022-10-12T05:12:55.463Z,16.20
2022-10-12T05:15:21.388Z,16.20
2022-10-12T05:17:47.315Z,16.20
2022-10-12T05:20:14.024Z,16.20
2022-10-12T05:22:40.616Z,16.10
2022-10-12T05:25:06.552Z,16.20
2022-10-12T05:27:33.471Z,16.30
2022-10-12T05:29:59.381Z,16.30
2022-10-12T05:32:25.300Z,16.40
2022-10-12T05:34:51.228Z,16.40
2022-10-12T05:37:17.183Z,16.40
2022-10-12T05:39:43.097Z,16.40
2022-10-12T05:42:09.012Z,16.40
2022-10-12T05:44:35.821Z,15.90
2022-10-12T05:47:01.805Z,16.00
2022-10-12T05:49:28.529Z,15.90
2022-10-12T05:51:54.461Z,16.10
2022-10-12T05:54:21.090Z,16.00
2022-10-12T05:56:46.993Z,15.80
2022-10-12T05:59:13.581Z,15.90
2022-10-12T06:01:40.245Z,16.00
2022-10-12T06:04:06.268Z,16.20
2022-10-12T06:06:32.197Z,16.50
2022-10-12T06:08:58.109Z,16.60
2022-10-12T06:11:24.134Z,16.70
2022-10-12T06:13:50.067Z,16.70
2022-10-12T06:16:15.956Z,16.70
2022-10-12T06:18:41.902Z,16.80
2022-10-12T06:21:32.647Z,16.50
2022-10-12T06:23:56.066Z,16.80
2022-10-12T06:26:22.782Z,16.90
2022-10-12T06:28:48.795Z,16.80
2022-10-12T06:31:14.752Z,16.90
2022-10-12T06:33:40.668Z,17.00
2022-10-12T06:36:07.403Z,17.10
2022-10-12T06:38:33.325Z,17.20
2022-10-12T06:40:59.307Z,17.20
2022-10-12T06:43:25.850Z,17.30
2022-10-12T06:45:51.835Z,17.40
2022-10-12T06:48:18.883Z,17.50
2022-10-12T06:50:45.060Z,17.50
2022-10-12T06:53:12.330Z,17.60
2022-10-12T06:55:38.289Z,17.60
2022-10-12T06:58:05.125Z,17.40
2022-10-12T07:00:31.310Z,17.10
2022-10-12T07:02:57.540Z,17.10
2022-10-12T07:05:23.752Z,17.30
2022-10-12T07:07:51.991Z,17.20
2022-10-12T07:10:18.237Z,17.10
2022-10-12T07:12:44.426Z,17.40
2022-10-12T07:15:10.763Z,17.60
2022-10-12T07:17:37.086Z,17.50
2022-10-12T09:15:05.969Z,18.80
2022-10-12T09:17:32.564Z,18.50
2022-10-12T09:19:58.513Z,18.80
2022-10-12T09:22:24.446Z,18.90
2022-10-12T09:24:51.314Z,18.60
2022-10-12T09:27:17.289Z,18.80
2022-10-12T09:29:43.194Z,18.70
2022-10-12T09:32:10.029Z,18.70
2022-10-12T09:34:35.970Z,19.00
2022-10-12T09:37:01.874Z,19.30
2022-10-12T09:39:29.250Z,19.00
2022-10-12T09:41:55.991Z,18.80
2022-10-12T09:44:21.916Z,18.90
2022-10-12T09:46:47.814Z,18.70
2022-10-12T09:49:14.215Z,19.00
2022-10-12T09:51:40.141Z,19.40
2022-10-12T09:54:06.064Z,19.50
2022-10-12T09:56:32.650Z,20.10
2022-10-12T09:58:59.426Z,20.70
2022-10-12T10:01:25.369Z,20.80
2022-10-12T10:03:52.046Z,20.50
2022-10-12T10:06:17.983Z,19.80
2022-10-12T10:08:44.687Z,19.90
2022-10-12T10:11:11.247Z,19.60
2022-10-12T10:13:37.171Z,19.90
2022-10-12T10:16:03.098Z,20.20
2022-10-12T10:18:29.799Z,19.90
2022-10-12T10:20:55.788Z,19.80
2022-10-12T10:23:21.747Z,20.20
2022-10-12T10:25:48.466Z,19.90
2022-10-12T10:28:14.473Z,19.70
2022-10-12T10:30:41.546Z,20.10
2022-10-12T10:33:08.332Z,20.20
2022-10-12T10:35:34.329Z,20.40
2022-10-12T10:38:00.237Z,20.40
2022-10-12T10:40:26.566Z,20.70
2022-10-12T10:42:53.058Z,20.80
2022-10-12T10:45:19.285Z,19.90
2022-10-12T10:47:46.009Z,20.00
2022-10-12T10:50:11.986Z,19.60
2022-10-12T10:52:37.910Z,19.90
2022-10-12T10:55:03.865Z,20.20
2022-10-12T10:57:29.791Z,20.60
2022-10-12T10:59:55.805Z,20.80
2022-10-12T11:02:22.658Z,21.20
2022-10-12T11:04:48.590Z,20.90
2022-10-12T11:07:14.723Z,20.80
2022-10-12T11:09:40.656Z,20.30
2022-10-12T11:12:07.509Z,20.40
2022-10-12T11:14:34.284Z,20.40
2022-10-12T11:17:00.241Z,20.60
2022-10-12T11:19:26.181Z,20.40
2022-10-12T11:21:52.705Z,20.50
2022-10-12T11:24:18.703Z,20.90
2022-10-12T11:26:44.690Z,20.60
2022-10-12T11:29:10.715Z,20.60
2022-10-12T11:31:36.622Z,20.50
2022-10-12T11:34:02.611Z,20.60
2022-10-12T11:36:28.657Z,20.10
2022-10-12T11:38:54.640Z,20.20
2022-10-12T11:41:36.484Z,20.80
2022-10-12T11:44:02.597Z,21.00
2022-10-12T11:46:28.529Z,20.90
2022-10-12T11:48:54.537Z,20.60
2022-10-12T11:51:20.832Z,20.50
2022-10-12T11:53:47.000Z,20.60
2022-10-12T11:56:14.140Z,20.50
2022-10-12T11:58:59.836Z,20.80
2022-10-12T12:01:26.470Z,21.00
2022-10-12T12:03:52.843Z,20.90
2022-10-12T12:06:19.009Z,21.10
2022-10-12T14:16:04.768Z,22.00
2022-10-12T14:18:30.712Z,22.00
2022-10-12T14:20:56.642Z,22.10
2022-10-12T14:23:22.557Z,21.50
2022-10-12T14:25:50.879Z,21.70
2022-10-12T14:28:16.862Z,21.70
2022-10-12T14:30:43.530Z,21.40
2022-10-12T14:33:09.501Z,21.80
2022-10-12T14:35:35.418Z,21.70
2022-10-12T14:38:02.092Z,21.10
2022-10-12T14:40:28.017Z,21.00
2022-10-12T14:42:54.478Z,21.40
2022-10-12T14:45:20.403Z,21.50
2022-10-12T14:47:46.322Z,21.50
2022-10-12T14:50:12.220Z,21.20
2022-10-12T14:52:38.146Z,21.00
2022-10-12T14:55:04.871Z,20.60
2022-10-12T14:57:30.792Z,20.80
2022-10-12T14:59:56.785Z,20.90
2022-10-12T15:02:22.735Z,20.90
2022-10-12T15:04:49.566Z,21.00
2022-10-12T15:07:15.502Z,21.00
2022-10-12T15:09:41.430Z,21.20
2022-10-12T15:12:08.063Z,21.20
2022-10-12T15:14:33.989Z,21.20
2022-10-12T15:16:59.893Z,21.10
2022-10-12T15:19:25.862Z,20.90
2022-10-12T15:21:51.828Z,20.90
2022-10-12T15:24:17.727Z,20.90
2022-10-12T15:26:43.671Z,20.80
2022-10-12T15:29:09.633Z,20.80
2022-10-12T15:31:36.141Z,20.80
2022-10-12T15:34:02.083Z,20.80
2022-10-12T15:36:28.003Z,20.80
2022-10-12T15:38:53.953Z,20.70
2022-10-12T15:41:20.625Z,20.70
2022-10-12T15:43:46.601Z,20.70
2022-10-12T15:46:12.507Z,20.60
2022-10-12T15:48:38.418Z,20.40
2022-10-12T15:51:05.105Z,20.30
2022-10-12T15:53:31.017Z,20.30
2022-10-12T15:55:56.957Z,20.20
2022-10-12T15:58:23.036Z,19.90
2022-10-12T16:00:49.910Z,19.70
2022-10-12T16:03:15.877Z,19.80
2022-10-12T16:05:41.845Z,20.00
2022-10-12T16:08:08.542Z,20.10
2022-10-12T16:10:34.474Z,19.90
2022-10-12T16:13:00.400Z,19.70
2022-10-12T16:15:26.326Z,19.30
2022-10-12T16:17:52.254Z,19.20
2022-10-12T16:20:18.227Z,19.50
2022-10-12T16:22:44.166Z,19.40
2022-10-12T16:25:11.033Z,19.50
2022-10-12T16:27:36.934Z,19.80
2022-10-12T16:30:05.790Z,19.90
2022-10-12T16:32:31.726Z,19.80
2022-10-12T16:34:57.685Z,19.90
2022-10-12T16:37:24.526Z,19.90
2022-10-12T16:39:50.467Z,19.90
2022-10-12T16:42:16.823Z,19.80
2022-10-12T16:44:43.753Z,19.70
2022-10-12T16:47:10.138Z,19.80
2022-10-12T16:49:36.036Z,19.50
2022-10-12T16:52:03.548Z,19.50
2022-10-12T16:54:29.760Z,19.60
2022-10-12T17:02:17.979Z,19.60
2022-10-12T17:04:45.225Z,19.70
2022-10-12T17:07:12.295Z,19.70
2022-10-12T17:17:40.821Z,19.80
2022-10-12T19:10:05.507Z,18.50
2022-10-12T19:12:31.431Z,18.50
2022-10-12T19:14:57.387Z,18.40
2022-10-12T19:17:24.035Z,18.10
2022-10-12T19:19:50.043Z,18.20
2022-10-12T19:22:16.295Z,18.20
2022-10-12T19:24:42.471Z,17.70
2022-10-12T19:27:08.365Z,17.70
2022-10-12T19:29:34.287Z,17.80
2022-10-12T19:32:00.203Z,18.00
2022-10-12T19:34:26.163Z,18.20
2022-10-12T19:36:52.074Z,18.30
2022-10-12T19:39:18.979Z,18.20
2022-10-12T19:41:44.913Z,18.20
2022-10-12T19:44:10.854Z,18.10
2022-10-12T19:46:36.807Z,17.70
2022-10-12T19:49:02.817Z,17.90
2022-10-12T19:51:28.748Z,18.10
2022-10-12T19:53:54.678Z,18.20
2022-10-12T19:56:20.598Z,18.10
2022-10-12T19:58:46.563Z,17.50
2022-10-12T20:01:12.544Z,17.40
2022-10-12T20:03:40.502Z,17.30
2022-10-12T20:06:08.935Z,17.20
2022-10-12T20:08:35.710Z,17.20
2022-10-12T20:11:01.811Z,17.30
2022-10-12T20:13:27.714Z,17.70
2022-10-12T20:15:54.240Z,18.00
2022-10-12T20:18:20.236Z,18.00
2022-10-12T20:20:46.160Z,18.00
2022-10-12T20:23:12.087Z,18.10
2022-10-12T20:25:38.332Z,18.10
2022-10-12T20:28:05.277Z,17.90
2022-10-12T20:30:31.189Z,17.50
2022-10-12T20:32:57.835Z,17.70
2022-10-12T20:35:23.744Z,17.80
2022-10-12T20:37:49.898Z,17.80
2022-10-12T20:42:59.930Z,18.00
2022-10-12T20:45:25.893Z,17.90
2022-10-12T20:47:52.606Z,17.90
2022-10-12T20:50:19.300Z,17.90
2022-10-12T20:52:45.224Z,17.50
2022-10-12T20:55:11.127Z,17.10
2022-10-12T20:57:37.116Z,16.90
2022-10-12T21:00:03.053Z,17.10
2022-10-12T21:02:29.717Z,17.40
2022-10-12T21:04:56.908Z,17.60
2022-10-12T21:07:22.846Z,17.50
2022-10-12T21:09:48.763Z,17.50
2022-10-12T21:12:15.824Z,17.40
2022-10-12T21:14:41.996Z,17.10
2022-10-12T21:17:08.668Z,17.30
2022-10-12T21:19:34.612Z,17.40
2022-10-12T21:22:00.530Z,17.40
2022-10-12T21:24:26.462Z,17.50
2022-10-12T21:26:53.075Z,17.30
2022-10-12T21:29:19.965Z,17.10
2022-10-12T21:31:45.886Z,17.10
2022-10-12T21:34:11.861Z,17.10
2022-10-12T21:36:37.776Z,17.00
2022-10-12T21:39:04.582Z,16.70
2022-10-12T21:41:30.468Z,16.70
2022-10-12T21:43:56.730Z,16.80
2022-10-12T21:46:22.748Z,16.70
2022-10-12T21:48:50.176Z,16.70
2022-10-12T21:51:16.392Z,16.60
2022-10-12T21:53:42.711Z,16.50
2022-10-12T21:56:10.301Z,16.60
2022-10-12T21:58:36.773Z,16.40
2022-10-12T22:01:03.047Z,16.40
2022-10-12T22:03:29.336Z,16.60
